sensor_id;sensor_type;location;lat;lon;timestamp;temperature;humidity
2999;DHT22;1509;51.964;7.628;2023-05-14T00:00:28;15.70;99.90
2999;DHT22;1509;51.964;7.628;2023-05-14T00:02:53;15.70;99.90
2999;DHT22;1509;51.964;7.628;2023-05-14T00:05:19;15.70;99.90
2999;DHT22;1509;51.964;7.628;2023-05-14T00:07:45;15.60;99.90
2999;DHT22;1509;51.964;7.628;2023-05-14T00:10:10;15.60;99.90
2999;DHT22;1509;51.964;7.628;2023-05-14T00:12:36;15.50;99.90
2999;DHT22;1509;51.964;7.628;2023-05-14T00:15:01;15.50;99.90
2999;DHT22;1509;51.964;7.628;2023-05-14T00:17:27;15.40;99.90
2999;DHT22;1509;51.964;7.628;2023-05-14T00:22:18;15.30;99.90
2999;DHT22;1509;51.964;7.628;2023-05-14T00:24:44;15.20;99.90
2999;DHT22;1509;51.964;7.628;2023-05-14T00:27:10;15.30;99.90
2999;DHT22;1509;51.964;7.628;2023-05-14T00:29:35;15.30;99.90
2999;DHT22;1509;51.964;7.628;2023-05-14T00:32:02;15.20;99.90
2999;DHT22;1509;51.964;7.628;2023-05-14T00:34:28;15.20;99.90
2999;DHT22;1509;51.964;7.628;2023-05-14T00:36:53;15.40;99.90
2999;DHT22;1509;51.964;7.628;2023-05-14T00:39:19;15.20;99.90
2999;DHT22;1509;51.964;7.628;2023-05-14T00:41:47;15.20;99.90
2999;DHT22;1509;51.964;7.628;2023-05-14T00:44:13;15.40;99.90
2999;DHT22;1509;51.964;7.628;2023-05-14T00:46:41;15.00;99.90
2999;DHT22;1509;51.964;7.628;2023-05-14T00:49:08;15.00;99.90
2999;DHT22;1509;51.964;7.628;2023-05-14T00:51:33;15.10;99.90
2999;DHT22;1509;51.964;7.628;2023-05-14T00:53:59;15.00;99.90
2999;DHT22;1509;51.964;7.628;2023-05-14T00:56:26;15.10;99.90
2999;DHT22;1509;51.964;7.628;2023-05-14T00:58:52;14.90;99.90
2999;DHT22;1509;51.964;7.628;2023-05-14T01:01:17;14.90;99.90
2999;DHT22;1509;51.964;7.628;2023-05-14T01:03:43;15.00;99.90
2999;DHT22;1509;51.964;7.628;2023-05-14T01:06:16;14.80;99.90
2999;DHT22;1509;51.964;7.628;2023-05-14T01:11:48;14.80;99.90
2999;DHT22;1509;51.964;7.628;2023-05-14T01:14:23;14.70;99.90
2999;DHT22;1509;51.964;7.628;2023-05-14T01:16:56;14.70;99.90
2999;DHT22;1509;51.964;7.628;2023-05-14T01:19:48;14.70;99.90
2999;DHT22;1509;51.964;7.628;2023-05-14T01:22:15;14.70;99.90
2999;DHT22;1509;51.964;7.628;2023-05-14T01:24:41;14.60;99.90
2999;DHT22;1509;51.964;7.628;2023-05-14T01:27:39;14.70;99.90
2999;DHT22;1509;51.964;7.628;2023-05-14T01:32:36;14.60;99.90
2999;DHT22;1509;51.964;7.628;2023-05-14T01:35:03;14.60;99.90
2999;DHT22;1509;51.964;7.628;2023-05-14T01:37:30;14.60;99.90
2999;DHT22;1509;51.964;7.628;2023-05-14T01:39:57;14.60;99.90
2999;DHT22;1509;51.964;7.628;2023-05-14T01:42:23;14.40;99.90
2999;DHT22;1509;51.964;7.628;2023-05-14T01:44:50;14.40;99.90
2999;DHT22;1509;51.964;7.628;2023-05-14T01:47:15;14.40;99.90
2999;DHT22;1509;51.964;7.628;2023-05-14T01:49:41;14.30;99.90
2999;DHT22;1509;51.964;7.628;2023-05-14T01:52:07;14.30;99.90
2999;DHT22;1509;51.964;7.628;2023-05-14T01:54:33;14.30;99.90
2999;DHT22;1509;51.964;7.628;2023-05-14T01:56:58;14.30;99.90
2999;DHT22;1509;51.964;7.628;2023-05-14T01:59:24;14.20;99.90
2999;DHT22;1509;51.964;7.628;2023-05-14T02:01:50;14.20;99.90
2999;DHT22;1509;51.964;7.628;2023-05-14T02:04:15;14.10;99.90
2999;DHT22;1509;51.964;7.628;2023-05-14T02:06:41;14.00;99.90
2999;DHT22;1509;51.964;7.628;2023-05-14T02:09:06;14.10;99.90
2999;DHT22;1509;51.964;7.628;2023-05-14T02:11:32;14.10;99.90
2999;DHT22;1509;51.964;7.628;2023-05-14T02:13:58;14.10;99.90
2999;DHT22;1509;51.964;7.628;2023-05-14T02:16:23;14.10;99.90
2999;DHT22;1509;51.964;7.628;2023-05-14T02:18:49;14.00;99.90
2999;DHT22;1509;51.964;7.628;2023-05-14T02:21:14;14.10;99.90
2999;DHT22;1509;51.964;7.628;2023-05-14T02:23:40;14.10;99.90
2999;DHT22;1509;51.964;7.628;2023-05-14T02:26:08;14.20;99.90
2999;DHT22;1509;51.964;7.628;2023-05-14T02:28:34;14.10;99.90
2999;DHT22;1509;51.964;7.628;2023-05-14T02:30:59;14.00;99.90
2999;DHT22;1509;51.964;7.628;2023-05-14T02:33:26;14.00;99.90
2999;DHT22;1509;51.964;7.628;2023-05-14T02:35:52;14.00;99.90
2999;DHT22;1509;51.964;7.628;2023-05-14T02:38:17;13.90;99.90
2999;DHT22;1509;51.964;7.628;2023-05-14T02:40:44;14.00;99.90
2999;DHT22;1509;51.964;7.628;2023-05-14T02:43:09;14.00;99.90
2999;DHT22;1509;51.964;7.628;2023-05-14T02:45:35;13.90;99.90
2999;DHT22;1509;51.964;7.628;2023-05-14T02:48:03;13.70;99.90
2999;DHT22;1509;51.964;7.628;2023-05-14T02:50:29;13.90;99.90
2999;DHT22;1509;51.964;7.628;2023-05-14T02:52:54;13.90;99.90
2999;DHT22;1509;51.964;7.628;2023-05-14T02:55:20;13.90;99.90
2999;DHT22;1509;51.964;7.628;2023-05-14T02:57:46;13.80;99.90
2999;DHT22;1509;51.964;7.628;2023-05-14T03:00:12;13.80;99.90
2999;DHT22;1509;51.964;7.628;2023-05-14T03:02:37;13.70;99.90
2999;DHT22;1509;51.964;7.628;2023-05-14T03:05:03;13.70;99.90
2999;DHT22;1509;51.964;7.628;2023-05-14T03:07:29;13.70;99.90
2999;DHT22;1509;51.964;7.628;2023-05-14T03:09:55;13.70;99.90
2999;DHT22;1509;51.964;7.628;2023-05-14T03:12:20;13.60;99.90
2999;DHT22;1509;51.964;7.628;2023-05-14T03:14:46;13.40;99.90
2999;DHT22;1509;51.964;7.628;2023-05-14T03:17:12;13.40;99.90
2999;DHT22;1509;51.964;7.628;2023-05-14T03:19:37;13.50;99.90
2999;DHT22;1509;51.964;7.628;2023-05-14T03:22:03;13.50;99.90
2999;DHT22;1509;51.964;7.628;2023-05-14T03:24:29;13.40;99.90
2999;DHT22;1509;51.964;7.628;2023-05-14T03:26:55;13.50;99.90
2999;DHT22;1509;51.964;7.628;2023-05-14T03:29:21;13.40;99.90
2999;DHT22;1509;51.964;7.628;2023-05-14T03:31:47;13.30;99.90
2999;DHT22;1509;51.964;7.628;2023-05-14T03:34:12;13.30;99.90
2999;DHT22;1509;51.964;7.628;2023-05-14T03:36:38;13.30;99.90
2999;DHT22;1509;51.964;7.628;2023-05-14T03:39:04;13.10;99.90
2999;DHT22;1509;51.964;7.628;2023-05-14T03:41:33;13.20;99.90
2999;DHT22;1509;51.964;7.628;2023-05-14T03:43:59;12.90;99.90
2999;DHT22;1509;51.964;7.628;2023-05-14T03:46:25;13.10;99.90
2999;DHT22;1509;51.964;7.628;2023-05-14T03:48:50;13.10;99.90
2999;DHT22;1509;51.964;7.628;2023-05-14T03:51:16;13.10;99.90
2999;DHT22;1509;51.964;7.628;2023-05-14T03:53:41;13.00;99.90
2999;DHT22;1509;51.964;7.628;2023-05-14T03:56:07;12.90;99.90
2999;DHT22;1509;51.964;7.628;2023-05-14T03:58:33;13.00;99.90
2999;DHT22;1509;51.964;7.628;2023-05-14T04:00:58;13.00;99.90
2999;DHT22;1509;51.964;7.628;2023-05-14T04:03:24;12.70;99.90
2999;DHT22;1509;51.964;7.628;2023-05-14T04:05:50;12.80;99.90
2999;DHT22;1509;51.964;7.628;2023-05-14T04:08:16;12.90;99.90
2999;DHT22;1509;51.964;7.628;2023-05-14T04:10:41;12.90;99.90
2999;DHT22;1509;51.964;7.628;2023-05-14T04:13:07;12.80;99.90
2999;DHT22;1509;51.964;7.628;2023-05-14T04:18:00;12.80;99.90
2999;DHT22;1509;51.964;7.628;2023-05-14T04:20:28;13.00;99.90
2999;DHT22;1509;51.964;7.628;2023-05-14T04:22:55;13.00;99.90
2999;DHT22;1509;51.964;7.628;2023-05-14T04:25:21;12.90;99.90
2999;DHT22;1509;51.964;7.628;2023-05-14T04:27:46;12.90;99.90
2999;DHT22;1509;51.964;7.628;2023-05-14T04:30:12;12.90;99.90
2999;DHT22;1509;51.964;7.628;2023-05-14T04:32:38;13.00;99.90
2999;DHT22;1509;51.964;7.628;2023-05-14T04:35:04;13.30;99.90
2999;DHT22;1509;51.964;7.628;2023-05-14T04:37:29;13.00;99.90
2999;DHT22;1509;51.964;7.628;2023-05-14T04:39:56;13.10;99.90
2999;DHT22;1509;51.964;7.628;2023-05-14T04:42:21;13.10;99.90
2999;DHT22;1509;51.964;7.628;2023-05-14T04:44:47;13.10;99.90
2999;DHT22;1509;51.964;7.628;2023-05-14T04:47:13;13.20;99.90
2999;DHT22;1509;51.964;7.628;2023-05-14T04:49:38;13.10;99.90
2999;DHT22;1509;51.964;7.628;2023-05-14T04:52:05;13.00;99.90
2999;DHT22;1509;51.964;7.628;2023-05-14T04:54:31;13.00;99.90
2999;DHT22;1509;51.964;7.628;2023-05-14T04:56:56;13.20;99.90
2999;DHT22;1509;51.964;7.628;2023-05-14T04:59:27;13.10;99.90
2999;DHT22;1509;51.964;7.628;2023-05-14T05:01:53;13.20;99.90
2999;DHT22;1509;51.964;7.628;2023-05-14T05:04:19;13.10;99.90
2999;DHT22;1509;51.964;7.628;2023-05-14T05:06:44;13.30;99.90
2999;DHT22;1509;51.964;7.628;2023-05-14T05:09:10;13.40;99.90
2999;DHT22;1509;51.964;7.628;2023-05-14T05:11:36;13.50;99.90
2999;DHT22;1509;51.964;7.628;2023-05-14T05:14:02;13.30;99.90
2999;DHT22;1509;51.964;7.628;2023-05-14T05:16:27;13.30;99.90
2999;DHT22;1509;51.964;7.628;2023-05-14T05:18:53;13.20;99.90
2999;DHT22;1509;51.964;7.628;2023-05-14T05:21:19;13.20;99.90
2999;DHT22;1509;51.964;7.628;2023-05-14T05:23:44;13.40;99.90
2999;DHT22;1509;51.964;7.628;2023-05-14T05:26:10;13.20;99.90
2999;DHT22;1509;51.964;7.628;2023-05-14T05:28:35;13.30;99.90
2999;DHT22;1509;51.964;7.628;2023-05-14T05:31:01;13.30;99.90
2999;DHT22;1509;51.964;7.628;2023-05-14T05:33:26;13.40;99.90
2999;DHT22;1509;51.964;7.628;2023-05-14T05:35:52;13.40;99.90
2999;DHT22;1509;51.964;7.628;2023-05-14T05:38:18;13.40;99.90
2999;DHT22;1509;51.964;7.628;2023-05-14T05:40:43;13.70;99.90
2999;DHT22;1509;51.964;7.628;2023-05-14T05:43:09;13.60;99.90
2999;DHT22;1509;51.964;7.628;2023-05-14T05:45:35;13.60;99.90
2999;DHT22;1509;51.964;7.628;2023-05-14T05:48:00;13.60;99.90
2999;DHT22;1509;51.964;7.628;2023-05-14T05:50:26;13.80;99.90
2999;DHT22;1509;51.964;7.628;2023-05-14T05:52:52;13.80;99.90
2999;DHT22;1509;51.964;7.628;2023-05-14T05:55:17;14.00;99.90
2999;DHT22;1509;51.964;7.628;2023-05-14T05:57:43;13.90;99.90
2999;DHT22;1509;51.964;7.628;2023-05-14T06:00:09;14.00;99.90
2999;DHT22;1509;51.964;7.628;2023-05-14T06:02:38;14.10;99.90
2999;DHT22;1509;51.964;7.628;2023-05-14T06:05:05;14.10;99.90
2999;DHT22;1509;51.964;7.628;2023-05-14T06:07:34;14.00;99.90
2999;DHT22;1509;51.964;7.628;2023-05-14T06:10:00;14.00;99.90
2999;DHT22;1509;51.964;7.628;2023-05-14T06:12:26;14.00;99.90
2999;DHT22;1509;51.964;7.628;2023-05-14T06:14:53;14.00;99.90
2999;DHT22;1509;51.964;7.628;2023-05-14T06:17:20;14.00;99.90
2999;DHT22;1509;51.964;7.628;2023-05-14T06:19:45;14.00;99.90
2999;DHT22;1509;51.964;7.628;2023-05-14T06:22:11;14.30;99.90
2999;DHT22;1509;51.964;7.628;2023-05-14T06:24:37;14.10;99.90
2999;DHT22;1509;51.964;7.628;2023-05-14T06:27:05;14.20;99.90
2999;DHT22;1509;51.964;7.628;2023-05-14T06:29:31;14.30;99.90
2999;DHT22;1509;51.964;7.628;2023-05-14T06:32:01;14.40;99.90
2999;DHT22;1509;51.964;7.628;2023-05-14T06:34:27;14.40;99.90
2999;DHT22;1509;51.964;7.628;2023-05-14T06:36:53;14.50;99.90
2999;DHT22;1509;51.964;7.628;2023-05-14T06:39:18;14.70;99.90
2999;DHT22;1509;51.964;7.628;2023-05-14T06:41:44;14.80;99.90
2999;DHT22;1509;51.964;7.628;2023-05-14T06:44:09;14.70;99.90
2999;DHT22;1509;51.964;7.628;2023-05-14T06:46:35;15.00;99.90
2999;DHT22;1509;51.964;7.628;2023-05-14T06:49:01;15.10;99.90
2999;DHT22;1509;51.964;7.628;2023-05-14T06:51:27;15.20;99.90
2999;DHT22;1509;51.964;7.628;2023-05-14T06:53:54;15.00;99.90
2999;DHT22;1509;51.964;7.628;2023-05-14T06:56:21;15.30;99.90
2999;DHT22;1509;51.964;7.628;2023-05-14T06:58:47;15.40;99.90
2999;DHT22;1509;51.964;7.628;2023-05-14T07:01:12;15.30;99.90
2999;DHT22;1509;51.964;7.628;2023-05-14T07:03:38;15.40;99.90
2999;DHT22;1509;51.964;7.628;2023-05-14T07:06:04;15.40;99.90
2999;DHT22;1509;51.964;7.628;2023-05-14T07:08:31;15.40;99.90
2999;DHT22;1509;51.964;7.628;2023-05-14T07:10:56;15.40;99.90
2999;DHT22;1509;51.964;7.628;2023-05-14T07:13:22;15.60;99.90
2999;DHT22;1509;51.964;7.628;2023-05-14T07:15:48;15.60;99.90
2999;DHT22;1509;51.964;7.628;2023-05-14T07:18:14;15.80;99.90
2999;DHT22;1509;51.964;7.628;2023-05-14T07:20:39;15.80;99.90
2999;DHT22;1509;51.964;7.628;2023-05-14T07:23:05;15.90;99.90
2999;DHT22;1509;51.964;7.628;2023-05-14T07:25:31;16.00;99.90
2999;DHT22;1509;51.964;7.628;2023-05-14T07:27:57;15.90;99.90
2999;DHT22;1509;51.964;7.628;2023-05-14T07:30:22;16.10;99.90
2999;DHT22;1509;51.964;7.628;2023-05-14T07:32:48;16.20;99.90
2999;DHT22;1509;51.964;7.628;2023-05-14T07:35:16;16.30;99.90
2999;DHT22;1509;51.964;7.628;2023-05-14T07:37:44;16.30;99.90
2999;DHT22;1509;51.964;7.628;2023-05-14T07:40:10;16.40;99.90
2999;DHT22;1509;51.964;7.628;2023-05-14T07:42:36;16.40;99.90
2999;DHT22;1509;51.964;7.628;2023-05-14T07:45:02;16.50;99.90
2999;DHT22;1509;51.964;7.628;2023-05-14T07:47:28;16.70;99.90
2999;DHT22;1509;51.964;7.628;2023-05-14T07:49:55;16.60;99.90
2999;DHT22;1509;51.964;7.628;2023-05-14T07:52:21;17.00;99.90
2999;DHT22;1509;51.964;7.628;2023-05-14T07:54:47;17.00;99.90
2999;DHT22;1509;51.964;7.628;2023-05-14T07:57:13;17.10;99.90
2999;DHT22;1509;51.964;7.628;2023-05-14T07:59:38;17.40;99.90
2999;DHT22;1509;51.964;7.628;2023-05-14T08:02:04;17.70;99.90
2999;DHT22;1509;51.964;7.628;2023-05-14T08:04:29;18.20;99.90
2999;DHT22;1509;51.964;7.628;2023-05-14T08:06:55;18.00;99.90
2999;DHT22;1509;51.964;7.628;2023-05-14T08:09:22;17.90;99.90
2999;DHT22;1509;51.964;7.628;2023-05-14T08:11:48;18.20;99.90
2999;DHT22;1509;51.964;7.628;2023-05-14T08:14:13;18.10;99.90
2999;DHT22;1509;51.964;7.628;2023-05-14T08:16:39;18.20;99.90
2999;DHT22;1509;51.964;7.628;2023-05-14T08:19:05;18.30;99.90
2999;DHT22;1509;51.964;7.628;2023-05-14T08:21:30;18.30;99.90
2999;DHT22;1509;51.964;7.628;2023-05-14T08:23:57;18.20;99.90
2999;DHT22;1509;51.964;7.628;2023-05-14T08:26:22;18.50;99.90
2999;DHT22;1509;51.964;7.628;2023-05-14T08:28:48;18.60;99.90
2999;DHT22;1509;51.964;7.628;2023-05-14T08:31:14;18.50;99.90
2999;DHT22;1509;51.964;7.628;2023-05-14T08:33:39;18.60;99.90
2999;DHT22;1509;51.964;7.628;2023-05-14T08:36:06;18.50;99.90
2999;DHT22;1509;51.964;7.628;2023-05-14T08:38:32;18.60;99.90
2999;DHT22;1509;51.964;7.628;2023-05-14T08:40:58;18.70;99.90
2999;DHT22;1509;51.964;7.628;2023-05-14T08:43:46;18.90;99.90
2999;DHT22;1509;51.964;7.628;2023-05-14T08:46:16;19.00;99.90
2999;DHT22;1509;51.964;7.628;2023-05-14T08:48:50;19.30;99.90
2999;DHT22;1509;51.964;7.628;2023-05-14T08:51:18;19.50;99.90
2999;DHT22;1509;51.964;7.628;2023-05-14T08:53:46;19.70;99.90
2999;DHT22;1509;51.964;7.628;2023-05-14T08:56:13;19.80;99.90
2999;DHT22;1509;51.964;7.628;2023-05-14T08:58:40;20.30;99.90
2999;DHT22;1509;51.964;7.628;2023-05-14T09:01:06;20.80;99.90
2999;DHT22;1509;51.964;7.628;2023-05-14T09:03:32;21.40;99.90
2999;DHT22;1509;51.964;7.628;2023-05-14T09:05:59;22.70;99.90
2999;DHT22;1509;51.964;7.628;2023-05-14T09:08:25;24.90;99.90
2999;DHT22;1509;51.964;7.628;2023-05-14T09:10:51;26.40;99.90
2999;DHT22;1509;51.964;7.628;2023-05-14T09:13:16;26.90;99.90
2999;DHT22;1509;51.964;7.628;2023-05-14T09:15:42;27.20;99.90
2999;DHT22;1509;51.964;7.628;2023-05-14T09:18:10;26.80;99.90
2999;DHT22;1509;51.964;7.628;2023-05-14T09:20:37;27.50;99.90
2999;DHT22;1509;51.964;7.628;2023-05-14T09:23:03;28.30;99.90
2999;DHT22;1509;51.964;7.628;2023-05-14T09:25:32;29.10;99.90
2999;DHT22;1509;51.964;7.628;2023-05-14T09:28:05;29.40;99.90
2999;DHT22;1509;51.964;7.628;2023-05-14T09:30:31;29.10;99.90
2999;DHT22;1509;51.964;7.628;2023-05-14T09:32:59;29.00;99.90
2999;DHT22;1509;51.964;7.628;2023-05-14T09:35:24;28.90;99.90
2999;DHT22;1509;51.964;7.628;2023-05-14T09:37:52;28.90;99.90
2999;DHT22;1509;51.964;7.628;2023-05-14T09:40:20;29.00;99.90
2999;DHT22;1509;51.964;7.628;2023-05-14T09:42:46;29.40;99.90
2999;DHT22;1509;51.964;7.628;2023-05-14T09:45:13;30.20;99.90
2999;DHT22;1509;51.964;7.628;2023-05-14T09:47:39;31.10;99.90
2999;DHT22;1509;51.964;7.628;2023-05-14T09:50:07;31.90;99.90
2999;DHT22;1509;51.964;7.628;2023-05-14T09:52:33;33.10;99.90
2999;DHT22;1509;51.964;7.628;2023-05-14T09:55:00;33.10;99.90
2999;DHT22;1509;51.964;7.628;2023-05-14T09:57:26;32.80;99.90
2999;DHT22;1509;51.964;7.628;2023-05-14T09:59:52;32.70;99.90
2999;DHT22;1509;51.964;7.628;2023-05-14T10:02:22;32.20;99.90
2999;DHT22;1509;51.964;7.628;2023-05-14T10:04:50;32.30;99.90
2999;DHT22;1509;51.964;7.628;2023-05-14T10:07:20;31.60;99.90
2999;DHT22;1509;51.964;7.628;2023-05-14T10:09:47;30.30;99.90
2999;DHT22;1509;51.964;7.628;2023-05-14T10:12:15;30.30;99.90
2999;DHT22;1509;51.964;7.628;2023-05-14T10:14:47;29.70;99.90
2999;DHT22;1509;51.964;7.628;2023-05-14T10:17:16;29.80;99.90
2999;DHT22;1509;51.964;7.628;2023-05-14T10:19:50;30.50;99.90
2999;DHT22;1509;51.964;7.628;2023-05-14T10:22:20;30.10;99.90
2999;DHT22;1509;51.964;7.628;2023-05-14T10:24:47;30.70;99.90
2999;DHT22;1509;51.964;7.628;2023-05-14T10:27:18;31.20;99.90
2999;DHT22;1509;51.964;7.628;2023-05-14T10:29:53;31.50;99.90
2999;DHT22;1509;51.964;7.628;2023-05-14T10:32:22;30.20;99.90
2999;DHT22;1509;51.964;7.628;2023-05-14T10:34:51;30.50;99.90
2999;DHT22;1509;51.964;7.628;2023-05-14T10:37:21;31.10;99.90
2999;DHT22;1509;51.964;7.628;2023-05-14T10:39:51;31.50;99.90
2999;DHT22;1509;51.964;7.628;2023-05-14T10:42:21;31.50;99.90
2999;DHT22;1509;51.964;7.628;2023-05-14T10:47:26;30.30;99.90
2999;DHT22;1509;51.964;7.628;2023-05-14T10:49:55;30.40;99.90
2999;DHT22;1509;51.964;7.628;2023-05-14T10:52:21;31.50;99.90
2999;DHT22;1509;51.964;7.628;2023-05-14T10:54:52;32.80;99.90
2999;DHT22;1509;51.964;7.628;2023-05-14T10:57:20;31.70;99.90
2999;DHT22;1509;51.964;7.628;2023-05-14T10:59:54;30.80;99.90
2999;DHT22;1509;51.964;7.628;2023-05-14T11:02:29;31.30;99.90
2999;DHT22;1509;51.964;7.628;2023-05-14T11:04:59;32.30;99.90
2999;DHT22;1509;51.964;7.628;2023-05-14T11:07:35;33.10;99.90
2999;DHT22;1509;51.964;7.628;2023-05-14T11:10:12;33.10;99.90
2999;DHT22;1509;51.964;7.628;2023-05-14T11:12:40;32.90;99.90
2999;DHT22;1509;51.964;7.628;2023-05-14T11:15:27;30.70;99.90
2999;DHT22;1509;51.964;7.628;2023-05-14T11:17:53;29.00;99.90
2999;DHT22;1509;51.964;7.628;2023-05-14T11:20:19;27.90;99.90
2999;DHT22;1509;51.964;7.628;2023-05-14T11:22:47;28.90;99.90
2999;DHT22;1509;51.964;7.628;2023-05-14T11:25:13;30.10;99.90
2999;DHT22;1509;51.964;7.628;2023-05-14T11:27:41;30.80;99.90
2999;DHT22;1509;51.964;7.628;2023-05-14T11:30:18;30.60;99.90
2999;DHT22;1509;51.964;7.628;2023-05-14T11:32:45;30.50;99.90
2999;DHT22;1509;51.964;7.628;2023-05-14T11:35:11;30.30;99.90
2999;DHT22;1509;51.964;7.628;2023-05-14T11:37:37;30.20;99.90
2999;DHT22;1509;51.964;7.628;2023-05-14T11:40:07;29.00;99.90
2999;DHT22;1509;51.964;7.628;2023-05-14T11:42:35;28.60;99.90
2999;DHT22;1509;51.964;7.628;2023-05-14T11:45:01;28.60;99.90
2999;DHT22;1509;51.964;7.628;2023-05-14T11:47:28;29.40;99.90
2999;DHT22;1509;51.964;7.628;2023-05-14T11:49:55;30.20;99.90
2999;DHT22;1509;51.964;7.628;2023-05-14T11:52:20;30.50;99.90
2999;DHT22;1509;51.964;7.628;2023-05-14T11:54:46;31.60;99.90
2999;DHT22;1509;51.964;7.628;2023-05-14T11:57:21;31.70;99.90
2999;DHT22;1509;51.964;7.628;2023-05-14T11:59:48;31.00;99.90
2999;DHT22;1509;51.964;7.628;2023-05-14T12:02:16;30.00;99.90
2999;DHT22;1509;51.964;7.628;2023-05-14T12:04:42;29.40;99.90
2999;DHT22;1509;51.964;7.628;2023-05-14T12:07:10;28.70;99.90
2999;DHT22;1509;51.964;7.628;2023-05-14T12:09:40;29.10;99.90
2999;DHT22;1509;51.964;7.628;2023-05-14T12:12:11;29.50;99.90
2999;DHT22;1509;51.964;7.628;2023-05-14T12:14:39;29.20;99.90
2999;DHT22;1509;51.964;7.628;2023-05-14T12:17:14;28.50;99.90
2999;DHT22;1509;51.964;7.628;2023-05-14T12:19:47;27.50;99.90
2999;DHT22;1509;51.964;7.628;2023-05-14T12:22:14;27.50;99.90
2999;DHT22;1509;51.964;7.628;2023-05-14T12:24:41;27.50;99.90
2999;DHT22;1509;51.964;7.628;2023-05-14T12:27:08;27.40;99.90
2999;DHT22;1509;51.964;7.628;2023-05-14T12:29:36;27.10;99.90
2999;DHT22;1509;51.964;7.628;2023-05-14T12:32:08;26.70;99.90
2999;DHT22;1509;51.964;7.628;2023-05-14T12:34:35;26.10;99.90
2999;DHT22;1509;51.964;7.628;2023-05-14T12:37:01;25.60;99.90
2999;DHT22;1509;51.964;7.628;2023-05-14T12:39:27;25.60;99.90
2999;DHT22;1509;51.964;7.628;2023-05-14T12:41:52;26.50;99.90
2999;DHT22;1509;51.964;7.628;2023-05-14T12:44:18;26.70;99.90
2999;DHT22;1509;51.964;7.628;2023-05-14T12:46:44;26.80;99.90
2999;DHT22;1509;51.964;7.628;2023-05-14T12:49:10;27.30;99.90
2999;DHT22;1509;51.964;7.628;2023-05-14T12:51:38;27.80;99.90
2999;DHT22;1509;51.964;7.628;2023-05-14T12:54:04;28.00;99.90
2999;DHT22;1509;51.964;7.628;2023-05-14T12:56:29;28.00;99.90
2999;DHT22;1509;51.964;7.628;2023-05-14T12:58:56;28.20;99.90
2999;DHT22;1509;51.964;7.628;2023-05-14T13:01:22;27.90;99.90
2999;DHT22;1509;51.964;7.628;2023-05-14T13:03:48;28.10;99.90
2999;DHT22;1509;51.964;7.628;2023-05-14T13:06:14;28.10;99.90
2999;DHT22;1509;51.964;7.628;2023-05-14T13:08:42;28.30;99.90
2999;DHT22;1509;51.964;7.628;2023-05-14T13:11:08;28.50;99.90
2999;DHT22;1509;51.964;7.628;2023-05-14T13:13:33;28.60;99.90
2999;DHT22;1509;51.964;7.628;2023-05-14T13:16:02;28.90;99.90
2999;DHT22;1509;51.964;7.628;2023-05-14T13:18:28;28.60;99.90
2999;DHT22;1509;51.964;7.628;2023-05-14T13:20:54;28.70;99.90
2999;DHT22;1509;51.964;7.628;2023-05-14T13:23:19;28.70;99.90
2999;DHT22;1509;51.964;7.628;2023-05-14T13:25:45;28.60;99.90
2999;DHT22;1509;51.964;7.628;2023-05-14T13:28:10;28.80;99.90
2999;DHT22;1509;51.964;7.628;2023-05-14T13:30:36;28.80;99.90
2999;DHT22;1509;51.964;7.628;2023-05-14T13:33:02;28.20;99.90
2999;DHT22;1509;51.964;7.628;2023-05-14T13:35:27;27.60;99.90
2999;DHT22;1509;51.964;7.628;2023-05-14T13:37:53;26.90;99.90
2999;DHT22;1509;51.964;7.628;2023-05-14T13:40:19;26.40;99.90
2999;DHT22;1509;51.964;7.628;2023-05-14T13:42:44;25.80;99.90
2999;DHT22;1509;51.964;7.628;2023-05-14T13:45:11;25.30;99.90
2999;DHT22;1509;51.964;7.628;2023-05-14T13:47:37;25.10;99.90
2999;DHT22;1509;51.964;7.628;2023-05-14T13:50:03;25.00;99.90
2999;DHT22;1509;51.964;7.628;2023-05-14T13:52:29;24.90;99.90
2999;DHT22;1509;51.964;7.628;2023-05-14T13:54:54;24.80;99.90
2999;DHT22;1509;51.964;7.628;2023-05-14T13:57:20;24.70;99.90
2999;DHT22;1509;51.964;7.628;2023-05-14T13:59:47;24.70;99.90
2999;DHT22;1509;51.964;7.628;2023-05-14T14:02:13;24.70;99.90
2999;DHT22;1509;51.964;7.628;2023-05-14T14:04:39;24.80;99.90
2999;DHT22;1509;51.964;7.628;2023-05-14T14:07:05;24.90;99.90
2999;DHT22;1509;51.964;7.628;2023-05-14T14:09:30;25.00;99.90
2999;DHT22;1509;51.964;7.628;2023-05-14T14:12:00;25.20;99.90
2999;DHT22;1509;51.964;7.628;2023-05-14T14:14:26;25.30;99.90
2999;DHT22;1509;51.964;7.628;2023-05-14T14:16:52;25.20;99.90
2999;DHT22;1509;51.964;7.628;2023-05-14T14:19:17;25.30;99.90
2999;DHT22;1509;51.964;7.628;2023-05-14T14:21:43;25.30;99.90
2999;DHT22;1509;51.964;7.628;2023-05-14T14:24:09;25.30;99.90
2999;DHT22;1509;51.964;7.628;2023-05-14T14:26:34;25.40;99.90
2999;DHT22;1509;51.964;7.628;2023-05-14T14:29:00;25.50;99.90
2999;DHT22;1509;51.964;7.628;2023-05-14T14:31:26;25.40;99.90
2999;DHT22;1509;51.964;7.628;2023-05-14T14:33:54;25.30;99.90
2999;DHT22;1509;51.964;7.628;2023-05-14T14:36:20;24.90;99.90
2999;DHT22;1509;51.964;7.628;2023-05-14T14:38:45;24.90;99.90
2999;DHT22;1509;51.964;7.628;2023-05-14T14:41:11;24.20;99.90
2999;DHT22;1509;51.964;7.628;2023-05-14T14:43:37;23.80;99.90
2999;DHT22;1509;51.964;7.628;2023-05-14T14:46:04;23.60;99.90
2999;DHT22;1509;51.964;7.628;2023-05-14T14:48:32;23.60;99.90
2999;DHT22;1509;51.964;7.628;2023-05-14T14:51:01;23.80;99.90
2999;DHT22;1509;51.964;7.628;2023-05-14T14:53:27;23.90;99.90
2999;DHT22;1509;51.964;7.628;2023-05-14T14:55:53;24.20;99.90
2999;DHT22;1509;51.964;7.628;2023-05-14T14:58:19;24.50;99.90
2999;DHT22;1509;51.964;7.628;2023-05-14T15:00:45;24.40;99.90
2999;DHT22;1509;51.964;7.628;2023-05-14T15:03:11;24.50;99.90
2999;DHT22;1509;51.964;7.628;2023-05-14T15:05:39;24.50;99.90
2999;DHT22;1509;51.964;7.628;2023-05-14T15:08:04;24.40;99.90
2999;DHT22;1509;51.964;7.628;2023-05-14T15:10:30;24.50;99.90
2999;DHT22;1509;51.964;7.628;2023-05-14T15:12:57;24.60;99.90
2999;DHT22;1509;51.964;7.628;2023-05-14T15:15:26;24.60;99.90
2999;DHT22;1509;51.964;7.628;2023-05-14T15:17:54;24.70;99.90
2999;DHT22;1509;51.964;7.628;2023-05-14T15:20:20;24.80;99.90
2999;DHT22;1509;51.964;7.628;2023-05-14T15:22:46;24.90;99.90
2999;DHT22;1509;51.964;7.628;2023-05-14T15:25:11;24.90;99.90
2999;DHT22;1509;51.964;7.628;2023-05-14T15:27:37;24.90;99.90
2999;DHT22;1509;51.964;7.628;2023-05-14T15:30:03;24.90;99.90
2999;DHT22;1509;51.964;7.628;2023-05-14T15:32:29;24.70;99.90
2999;DHT22;1509;51.964;7.628;2023-05-14T15:34:55;24.20;99.90
2999;DHT22;1509;51.964;7.628;2023-05-14T15:37:22;24.00;99.90
2999;DHT22;1509;51.964;7.628;2023-05-14T15:39:48;23.60;99.90
2999;DHT22;1509;51.964;7.628;2023-05-14T15:42:14;23.70;99.90
2999;DHT22;1509;51.964;7.628;2023-05-14T15:44:39;23.70;99.90
2999;DHT22;1509;51.964;7.628;2023-05-14T15:47:05;23.90;99.90
2999;DHT22;1509;51.964;7.628;2023-05-14T15:49:31;23.70;99.90
2999;DHT22;1509;51.964;7.628;2023-05-14T15:51:56;23.60;99.90
2999;DHT22;1509;51.964;7.628;2023-05-14T15:54:22;23.60;99.90
2999;DHT22;1509;51.964;7.628;2023-05-14T15:56:48;23.50;99.90
2999;DHT22;1509;51.964;7.628;2023-05-14T15:59:13;23.50;99.90
2999;DHT22;1509;51.964;7.628;2023-05-14T16:01:40;23.00;99.90
2999;DHT22;1509;51.964;7.628;2023-05-14T16:04:06;22.60;99.90
2999;DHT22;1509;51.964;7.628;2023-05-14T16:06:33;22.10;99.90
2999;DHT22;1509;51.964;7.628;2023-05-14T16:08:58;21.80;99.90
2999;DHT22;1509;51.964;7.628;2023-05-14T16:11:25;21.50;99.90